sensor_id;sensor_type;location;lat;lon;timestamp;P1;durP1;ratioP1;P2;durP2;ratioP2
58468;SDS011;44257;44.804;10.220;2024-01-10T00:01:45;14.82;;;9.40;;
58468;SDS011;44257;44.804;10.220;2024-01-10T00:04:11;15.18;;;9.52;;
58468;SDS011;44257;44.804;10.220;2024-01-10T00:06:37;14.43;;;9.43;;
58468;SDS011;44257;44.804;10.220;2024-01-10T00:09:03;17.55;;;9.13;;
58468;SDS011;44257;44.804;10.220;2024-01-10T00:11:28;20.33;;;10.25;;
58468;SDS011;44257;44.804;10.220;2024-01-10T00:13:54;21.15;;;10.60;;
58468;SDS011;44257;44.804;10.220;2024-01-10T00:16:25;17.10;;;10.13;;
58468;SDS011;44257;44.804;10.220;2024-01-10T00:18:51;19.05;;;10.35;;
58468;SDS011;44257;44.804;10.220;2024-01-10T00:21:17;16.50;;;10.23;;
58468;SDS011;44257;44.804;10.220;2024-01-10T00:23:43;17.98;;;9.95;;
58468;SDS011;44257;44.804;10.220;2024-01-10T00:26:09;20.33;;;9.63;;
58468;SDS011;44257;44.804;10.220;2024-01-10T00:28:35;18.92;;;9.68;;
58468;SDS011;44257;44.804;10.220;2024-01-10T00:31:01;17.52;;;10.15;;
58468;SDS011;44257;44.804;10.220;2024-01-10T00:33:26;18.17;;;9.85;;
58468;SDS011;44257;44.804;10.220;2024-01-10T00:35:52;18.77;;;10.30;;
58468;SDS011;44257;44.804;10.220;2024-01-10T00:38:18;14.88;;;9.43;;
58468;SDS011;44257;44.804;10.220;2024-01-10T00:40:44;15.45;;;9.07;;
58468;SDS011;44257;44.804;10.220;2024-01-10T00:43:10;18.67;;;10.07;;
58468;SDS011;44257;44.804;10.220;2024-01-10T00:45:36;18.25;;;9.70;;
58468;SDS011;44257;44.804;10.220;2024-01-10T00:48:02;17.92;;;9.57;;
58468;SDS011;44257;44.804;10.220;2024-01-10T00:50:28;19.17;;;10.00;;
58468;SDS011;44257;44.804;10.220;2024-01-10T00:52:54;15.80;;;8.85;;
58468;SDS011;44257;44.804;10.220;2024-01-10T00:55:21;15.88;;;9.55;;
58468;SDS011;44257;44.804;10.220;2024-01-10T00:57:47;15.85;;;9.18;;
58468;SDS011;44257;44.804;10.220;2024-01-10T01:00:13;16.63;;;9.00;;
58468;SDS011;44257;44.804;10.220;2024-01-10T01:02:39;13.68;;;8.63;;
58468;SDS011;44257;44.804;10.220;2024-01-10T01:05:05;17.90;;;9.90;;
58468;SDS011;44257;44.804;10.220;2024-01-10T01:07:32;15.35;;;8.90;;
58468;SDS011;44257;44.804;10.220;2024-01-10T01:09:59;13.35;;;8.75;;
58468;SDS011;44257;44.804;10.220;2024-01-10T01:12:25;13.35;;;8.07;;
58468;SDS011;44257;44.804;10.220;2024-01-10T01:14:51;16.52;;;7.82;;
58468;SDS011;44257;44.804;10.220;2024-01-10T01:17:17;15.65;;;8.32;;
58468;SDS011;44257;44.804;10.220;2024-01-10T01:19:43;17.02;;;9.25;;
58468;SDS011;44257;44.804;10.220;2024-01-10T01:22:08;16.85;;;9.80;;
58468;SDS011;44257;44.804;10.220;2024-01-10T01:24:34;16.73;;;8.43;;
58468;SDS011;44257;44.804;10.220;2024-01-10T01:27:00;16.17;;;9.30;;
58468;SDS011;44257;44.804;10.220;2024-01-10T01:29:26;22.88;;;9.48;;
58468;SDS011;44257;44.804;10.220;2024-01-10T01:31:54;16.75;;;9.93;;
58468;SDS011;44257;44.804;10.220;2024-01-10T01:34:20;19.17;;;9.20;;
58468;SDS011;44257;44.804;10.220;2024-01-10T01:36:45;19.73;;;10.32;;
58468;SDS011;44257;44.804;10.220;2024-01-10T01:39:11;17.88;;;10.15;;
58468;SDS011;44257;44.804;10.220;2024-01-10T01:41:38;20.10;;;11.13;;
58468;SDS011;44257;44.804;10.220;2024-01-10T01:44:05;21.13;;;10.75;;
58468;SDS011;44257;44.804;10.220;2024-01-10T01:46:31;21.05;;;11.30;;
58468;SDS011;44257;44.804;10.220;2024-01-10T01:48:58;20.05;;;11.63;;
58468;SDS011;44257;44.804;10.220;2024-01-10T01:51:24;22.70;;;11.57;;
58468;SDS011;44257;44.804;10.220;2024-01-10T01:53:52;23.42;;;11.35;;
58468;SDS011;44257;44.804;10.220;2024-01-10T01:56:19;20.15;;;11.55;;
58468;SDS011;44257;44.804;10.220;2024-01-10T01:58:45;21.85;;;10.98;;
58468;SDS011;44257;44.804;10.220;2024-01-10T02:01:13;21.63;;;11.88;;
58468;SDS011;44257;44.804;10.220;2024-01-10T02:03:39;20.73;;;10.75;;
58468;SDS011;44257;44.804;10.220;2024-01-10T02:06:05;19.65;;;11.95;;
58468;SDS011;44257;44.804;10.220;2024-01-10T02:08:32;20.98;;;11.18;;
58468;SDS011;44257;44.804;10.220;2024-01-10T02:10:59;23.05;;;11.68;;
58468;SDS011;44257;44.804;10.220;2024-01-10T02:13:26;19.70;;;11.65;;
58468;SDS011;44257;44.804;10.220;2024-01-10T02:15:53;20.33;;;11.48;;
58468;SDS011;44257;44.804;10.220;2024-01-10T02:18:19;19.48;;;12.80;;
58468;SDS011;44257;44.804;10.220;2024-01-10T02:20:45;18.50;;;11.77;;
58468;SDS011;44257;44.804;10.220;2024-01-10T02:23:11;21.38;;;12.52;;
58468;SDS011;44257;44.804;10.220;2024-01-10T02:25:38;19.98;;;10.77;;
58468;SDS011;44257;44.804;10.220;2024-01-10T02:28:05;25.65;;;13.15;;
58468;SDS011;44257;44.804;10.220;2024-01-10T02:30:32;21.20;;;10.93;;
58468;SDS011;44257;44.804;10.220;2024-01-10T02:32:58;19.38;;;10.27;;
58468;SDS011;44257;44.804;10.220;2024-01-10T02:35:24;24.20;;;11.90;;
58468;SDS011;44257;44.804;10.220;2024-01-10T02:37:50;20.33;;;11.63;;
58468;SDS011;44257;44.804;10.220;2024-01-10T02:40:16;21.83;;;11.43;;
58468;SDS011;44257;44.804;10.220;2024-01-10T02:42:42;20.88;;;11.43;;
58468;SDS011;44257;44.804;10.220;2024-01-10T02:45:08;22.38;;;11.50;;
58468;SDS011;44257;44.804;10.220;2024-01-10T02:47:35;19.60;;;11.38;;
58468;SDS011;44257;44.804;10.220;2024-01-10T02:50:02;24.70;;;12.93;;
58468;SDS011;44257;44.804;10.220;2024-01-10T02:52:29;20.80;;;11.50;;
58468;SDS011;44257;44.804;10.220;2024-01-10T02:54:54;23.70;;;12.63;;
58468;SDS011;44257;44.804;10.220;2024-01-10T02:57:21;22.60;;;13.32;;
58468;SDS011;44257;44.804;10.220;2024-01-10T02:59:47;22.02;;;10.68;;
58468;SDS011;44257;44.804;10.220;2024-01-10T03:02:13;22.25;;;12.00;;
58468;SDS011;44257;44.804;10.220;2024-01-10T03:04:39;24.20;;;12.15;;
58468;SDS011;44257;44.804;10.220;2024-01-10T03:07:05;20.63;;;11.30;;
58468;SDS011;44257;44.804;10.220;2024-01-10T03:09:31;21.00;;;12.30;;
58468;SDS011;44257;44.804;10.220;2024-01-10T03:11:57;20.70;;;11.15;;
58468;SDS011;44257;44.804;10.220;2024-01-10T03:14:23;20.27;;;9.80;;
58468;SDS011;44257;44.804;10.220;2024-01-10T03:16:48;18.05;;;9.70;;
58468;SDS011;44257;44.804;10.220;2024-01-10T03:19:14;18.85;;;10.02;;
58468;SDS011;44257;44.804;10.220;2024-01-10T03:21:40;19.55;;;9.50;;
58468;SDS011;44257;44.804;10.220;2024-01-10T03:24:07;16.23;;;8.90;;
58468;SDS011;44257;44.804;10.220;2024-01-10T03:26:33;17.13;;;8.70;;
58468;SDS011;44257;44.804;10.220;2024-01-10T03:28:59;20.77;;;11.48;;
58468;SDS011;44257;44.804;10.220;2024-01-10T03:31:27;25.02;;;12.52;;
58468;SDS011;44257;44.804;10.220;2024-01-10T03:33:53;22.63;;;11.70;;
58468;SDS011;44257;44.804;10.220;2024-01-10T03:36:19;20.90;;;12.25;;
58468;SDS011;44257;44.804;10.220;2024-01-10T03:38:45;20.55;;;11.57;;
58468;SDS011;44257;44.804;10.220;2024-01-10T03:41:17;22.40;;;11.63;;
58468;SDS011;44257;44.804;10.220;2024-01-10T03:43:43;25.10;;;12.10;;
58468;SDS011;44257;44.804;10.220;2024-01-10T03:46:10;26.88;;;13.65;;
58468;SDS011;44257;44.804;10.220;2024-01-10T03:48:36;25.70;;;12.70;;
58468;SDS011;44257;44.804;10.220;2024-01-10T03:51:03;26.52;;;13.50;;
58468;SDS011;44257;44.804;10.220;2024-01-10T03:53:30;26.00;;;12.75;;
58468;SDS011;44257;44.804;10.220;2024-01-10T03:55:56;21.35;;;13.43;;
58468;SDS011;44257;44.804;10.220;2024-01-10T03:58:21;22.33;;;12.98;;
58468;SDS011;44257;44.804;10.220;2024-01-10T04:00:48;23.35;;;13.90;;
58468;SDS011;44257;44.804;10.220;2024-01-10T04:03:14;22.95;;;13.73;;
58468;SDS011;44257;44.804;10.220;2024-01-10T04:05:41;27.02;;;14.68;;
58468;SDS011;44257;44.804;10.220;2024-01-10T04:08:07;21.20;;;12.60;;
58468;SDS011;44257;44.804;10.220;2024-01-10T04:10:33;28.05;;;14.15;;
58468;SDS011;44257;44.804;10.220;2024-01-10T04:12:59;25.83;;;13.38;;
58468;SDS011;44257;44.804;10.220;2024-01-10T04:15:25;21.98;;;13.57;;
58468;SDS011;44257;44.804;10.220;2024-01-10T04:17:50;22.05;;;13.23;;
58468;SDS011;44257;44.804;10.220;2024-01-10T04:20:16;20.80;;;12.50;;
58468;SDS011;44257;44.804;10.220;2024-01-10T04:22:42;19.60;;;11.93;;
58468;SDS011;44257;44.804;10.220;2024-01-10T04:25:08;23.95;;;12.98;;
58468;SDS011;44257;44.804;10.220;2024-01-10T04:27:34;22.30;;;12.57;;
58468;SDS011;44257;44.804;10.220;2024-01-10T04:30:00;20.08;;;12.10;;
58468;SDS011;44257;44.804;10.220;2024-01-10T04:32:25;27.63;;;12.45;;
58468;SDS011;44257;44.804;10.220;2024-01-10T04:34:51;20.40;;;11.98;;
58468;SDS011;44257;44.804;10.220;2024-01-10T04:37:17;22.90;;;13.75;;
58468;SDS011;44257;44.804;10.220;2024-01-10T04:39:43;22.20;;;12.93;;
58468;SDS011;44257;44.804;10.220;2024-01-10T04:42:12;24.42;;;13.70;;
58468;SDS011;44257;44.804;10.220;2024-01-10T04:44:38;22.58;;;12.68;;
58468;SDS011;44257;44.804;10.220;2024-01-10T04:47:04;20.90;;;11.85;;
58468;SDS011;44257;44.804;10.220;2024-01-10T04:49:30;25.63;;;12.88;;
58468;SDS011;44257;44.804;10.220;2024-01-10T04:51:56;20.73;;;12.40;;
58468;SDS011;44257;44.804;10.220;2024-01-10T04:54:22;20.52;;;11.73;;
58468;SDS011;44257;44.804;10.220;2024-01-10T04:56:48;25.67;;;10.93;;
58468;SDS011;44257;44.804;10.220;2024-01-10T04:59:14;16.92;;;11.23;;
58468;SDS011;44257;44.804;10.220;2024-01-10T05:01:40;22.65;;;11.80;;
58468;SDS011;44257;44.804;10.220;2024-01-10T05:04:06;22.48;;;11.10;;
58468;SDS011;44257;44.804;10.220;2024-01-10T05:06:31;22.85;;;11.30;;
58468;SDS011;44257;44.804;10.220;2024-01-10T05:08:57;18.83;;;11.13;;
58468;SDS011;44257;44.804;10.220;2024-01-10T05:11:23;22.20;;;12.30;;
58468;SDS011;44257;44.804;10.220;2024-01-10T05:13:53;20.25;;;12.32;;
58468;SDS011;44257;44.804;10.220;2024-01-10T05:16:18;21.13;;;11.02;;
58468;SDS011;44257;44.804;10.220;2024-01-10T05:18:44;24.58;;;11.77;;
58468;SDS011;44257;44.804;10.220;2024-01-10T05:21:11;18.35;;;11.23;;
58468;SDS011;44257;44.804;10.220;2024-01-10T05:23:37;22.33;;;12.40;;
58468;SDS011;44257;44.804;10.220;2024-01-10T05:26:04;23.50;;;11.55;;
58468;SDS011;44257;44.804;10.220;2024-01-10T05:28:30;20.00;;;12.02;;
58468;SDS011;44257;44.804;10.220;2024-01-10T05:30:56;21.75;;;11.25;;
58468;SDS011;44257;44.804;10.220;2024-01-10T05:33:23;19.77;;;10.73;;
58468;SDS011;44257;44.804;10.220;2024-01-10T05:35:49;20.95;;;11.90;;
58468;SDS011;44257;44.804;10.220;2024-01-10T05:38:15;22.10;;;11.10;;
58468;SDS011;44257;44.804;10.220;2024-01-10T05:40:41;21.90;;;10.88;;
58468;SDS011;44257;44.804;10.220;2024-01-10T05:43:07;19.15;;;11.20;;
58468;SDS011;44257;44.804;10.220;2024-01-10T05:45:33;21.63;;;11.93;;
58468;SDS011;44257;44.804;10.220;2024-01-10T05:47:59;21.30;;;10.77;;
58468;SDS011;44257;44.804;10.220;2024-01-10T05:50:24;19.95;;;11.32;;
58468;SDS011;44257;44.804;10.220;2024-01-10T05:52:50;21.73;;;10.85;;
58468;SDS011;44257;44.804;10.220;2024-01-10T05:55:16;20.02;;;11.05;;
58468;SDS011;44257;44.804;10.220;2024-01-10T05:57:42;20.35;;;11.52;;
58468;SDS011;44257;44.804;10.220;2024-01-10T06:00:08;23.83;;;11.52;;
58468;SDS011;44257;44.804;10.220;2024-01-10T06:02:41;22.52;;;10.82;;
58468;SDS011;44257;44.804;10.220;2024-01-10T06:05:08;20.88;;;11.25;;
58468;SDS011;44257;44.804;10.220;2024-01-10T06:07:38;23.30;;;10.43;;
58468;SDS011;44257;44.804;10.220;2024-01-10T06:10:06;21.00;;;10.87;;
58468;SDS011;44257;44.804;10.220;2024-01-10T06:12:32;17.70;;;10.00;;
58468;SDS011;44257;44.804;10.220;2024-01-10T06:14:58;19.05;;;10.75;;
58468;SDS011;44257;44.804;10.220;2024-01-10T06:17:24;25.30;;;10.63;;
58468;SDS011;44257;44.804;10.220;2024-01-10T06:19:50;22.98;;;9.88;;
58468;SDS011;44257;44.804;10.220;2024-01-10T06:22:16;23.08;;;11.40;;
58468;SDS011;44257;44.804;10.220;2024-01-10T06:24:43;20.35;;;10.75;;
58468;SDS011;44257;44.804;10.220;2024-01-10T06:27:09;16.75;;;10.00;;
58468;SDS011;44257;44.804;10.220;2024-01-10T06:29:35;18.80;;;9.95;;
58468;SDS011;44257;44.804;10.220;2024-01-10T06:32:05;22.15;;;10.50;;
58468;SDS011;44257;44.804;10.220;2024-01-10T06:34:31;21.90;;;10.02;;
58468;SDS011;44257;44.804;10.220;2024-01-10T06:36:58;24.05;;;11.10;;
58468;SDS011;44257;44.804;10.220;2024-01-10T06:39:23;21.83;;;9.98;;
58468;SDS011;44257;44.804;10.220;2024-01-10T06:41:49;24.52;;;11.20;;
58468;SDS011;44257;44.804;10.220;2024-01-10T06:44:16;21.13;;;10.55;;
58468;SDS011;44257;44.804;10.220;2024-01-10T06:46:44;22.83;;;10.90;;
58468;SDS011;44257;44.804;10.220;2024-01-10T06:49:11;24.60;;;10.95;;
58468;SDS011;44257;44.804;10.220;2024-01-10T06:51:37;36.88;;;14.13;;
58468;SDS011;44257;44.804;10.220;2024-01-10T06:54:03;21.30;;;10.90;;
58468;SDS011;44257;44.804;10.220;2024-01-10T06:56:30;74.53;;;13.25;;
58468;SDS011;44257;44.804;10.220;2024-01-10T06:58:57;21.98;;;10.00;;
58468;SDS011;44257;44.804;10.220;2024-01-10T07:01:26;20.77;;;10.23;;
58468;SDS011;44257;44.804;10.220;2024-01-10T07:03:53;21.38;;;10.05;;
58468;SDS011;44257;44.804;10.220;2024-01-10T07:06:22;20.70;;;11.05;;
58468;SDS011;44257;44.804;10.220;2024-01-10T07:08:49;22.60;;;10.63;;
58468;SDS011;44257;44.804;10.220;2024-01-10T07:11:18;19.02;;;9.60;;
58468;SDS011;44257;44.804;10.220;2024-01-10T07:16:13;19.10;;;10.20;;
58468;SDS011;44257;44.804;10.220;2024-01-10T07:18:42;25.48;;;10.50;;
58468;SDS011;44257;44.804;10.220;2024-01-10T07:21:08;27.48;;;11.40;;
58468;SDS011;44257;44.804;10.220;2024-01-10T07:23:35;20.45;;;10.50;;
58468;SDS011;44257;44.804;10.220;2024-01-10T07:26:05;25.58;;;11.35;;
58468;SDS011;44257;44.804;10.220;2024-01-10T07:28:31;18.90;;;10.18;;
58468;SDS011;44257;44.804;10.220;2024-01-10T07:30:58;21.73;;;10.60;;
58468;SDS011;44257;44.804;10.220;2024-01-10T07:33:24;17.88;;;10.07;;
58468;SDS011;44257;44.804;10.220;2024-01-10T07:35:49;20.85;;;11.23;;
58468;SDS011;44257;44.804;10.220;2024-01-10T07:38:15;23.45;;;12.60;;
58468;SDS011;44257;44.804;10.220;2024-01-10T07:40:41;25.52;;;11.90;;
58468;SDS011;44257;44.804;10.220;2024-01-10T07:43:07;18.98;;;10.63;;
58468;SDS011;44257;44.804;10.220;2024-01-10T07:45:34;19.48;;;10.75;;
58468;SDS011;44257;44.804;10.220;2024-01-10T07:48:00;19.50;;;10.23;;
58468;SDS011;44257;44.804;10.220;2024-01-10T07:50:26;22.73;;;10.68;;
58468;SDS011;44257;44.804;10.220;2024-01-10T07:52:53;17.83;;;10.35;;
58468;SDS011;44257;44.804;10.220;2024-01-10T07:55:18;24.80;;;11.02;;
58468;SDS011;44257;44.804;10.220;2024-01-10T07:57:44;24.80;;;11.77;;
58468;SDS011;44257;44.804;10.220;2024-01-10T08:00:10;20.90;;;10.95;;
58468;SDS011;44257;44.804;10.220;2024-01-10T08:02:37;19.98;;;10.25;;
58468;SDS011;44257;44.804;10.220;2024-01-10T08:05:04;18.88;;;10.38;;
58468;SDS011;44257;44.804;10.220;2024-01-10T08:07:31;21.27;;;11.05;;
58468;SDS011;44257;44.804;10.220;2024-01-10T08:09:59;20.33;;;10.43;;
58468;SDS011;44257;44.804;10.220;2024-01-10T08:12:25;22.73;;;10.60;;
58468;SDS011;44257;44.804;10.220;2024-01-10T08:14:51;20.00;;;10.90;;
58468;SDS011;44257;44.804;10.220;2024-01-10T08:17:17;20.42;;;11.82;;
58468;SDS011;44257;44.804;10.220;2024-01-10T08:19:42;19.38;;;9.73;;
58468;SDS011;44257;44.804;10.220;2024-01-10T08:22:08;18.95;;;11.18;;
58468;SDS011;44257;44.804;10.220;2024-01-10T08:24:34;19.42;;;10.15;;
58468;SDS011;44257;44.804;10.220;2024-01-10T08:27:00;21.52;;;10.43;;
58468;SDS011;44257;44.804;10.220;2024-01-10T08:29:26;21.25;;;10.70;;
58468;SDS011;44257;44.804;10.220;2024-01-10T08:31:55;20.83;;;10.90;;
58468;SDS011;44257;44.804;10.220;2024-01-10T08:34:22;21.27;;;10.75;;
58468;SDS011;44257;44.804;10.220;2024-01-10T08:36:48;19.23;;;10.93;;
58468;SDS011;44257;44.804;10.220;2024-01-10T08:39:17;18.20;;;11.32;;
58468;SDS011;44257;44.804;10.220;2024-01-10T08:41:44;20.75;;;11.57;;
58468;SDS011;44257;44.804;10.220;2024-01-10T08:44:13;16.83;;;10.38;;
58468;SDS011;44257;44.804;10.220;2024-01-10T08:46:39;22.90;;;11.05;;
58468;SDS011;44257;44.804;10.220;2024-01-10T08:49:05;19.25;;;11.48;;
58468;SDS011;44257;44.804;10.220;2024-01-10T08:51:30;20.20;;;11.80;;
58468;SDS011;44257;44.804;10.220;2024-01-10T08:53:56;17.20;;;9.68;;
58468;SDS011;44257;44.804;10.220;2024-01-10T08:56:22;16.98;;;9.60;;
58468;SDS011;44257;44.804;10.220;2024-01-10T08:58:49;20.80;;;11.00;;
58468;SDS011;44257;44.804;10.220;2024-01-10T09:01:15;21.45;;;11.55;;
58468;SDS011;44257;44.804;10.220;2024-01-10T09:03:41;17.30;;;10.35;;
58468;SDS011;44257;44.804;10.220;2024-01-10T09:06:07;21.48;;;11.48;;
58468;SDS011;44257;44.804;10.220;2024-01-10T09:08:33;20.05;;;11.88;;
58468;SDS011;44257;44.804;10.220;2024-01-10T09:10:59;26.05;;;11.07;;
58468;SDS011;44257;44.804;10.220;2024-01-10T09:13:25;19.05;;;10.48;;
58468;SDS011;44257;44.804;10.220;2024-01-10T09:15:52;20.48;;;10.98;;
58468;SDS011;44257;44.804;10.220;2024-01-10T09:18:18;19.98;;;10.77;;
58468;SDS011;44257;44.804;10.220;2024-01-10T09:20:44;19.60;;;11.48;;
58468;SDS011;44257;44.804;10.220;2024-01-10T09:23:10;19.27;;;10.25;;
58468;SDS011;44257;44.804;10.220;2024-01-10T09:25:36;17.52;;;10.52;;
58468;SDS011;44257;44.804;10.220;2024-01-10T09:28:03;18.10;;;10.50;;
58468;SDS011;44257;44.804;10.220;2024-01-10T09:30:30;19.33;;;10.60;;
58468;SDS011;44257;44.804;10.220;2024-01-10T09:32:55;15.70;;;9.98;;
58468;SDS011;44257;44.804;10.220;2024-01-10T09:35:22;18.85;;;10.13;;
58468;SDS011;44257;44.804;10.220;2024-01-10T09:37:48;17.92;;;10.20;;
58468;SDS011;44257;44.804;10.220;2024-01-10T09:40:15;16.42;;;9.43;;
58468;SDS011;44257;44.804;10.220;2024-01-10T09:42:44;17.27;;;10.10;;
58468;SDS011;44257;44.804;10.220;2024-01-10T09:45:12;20.00;;;10.75;;
58468;SDS011;44257;44.804;10.220;2024-01-10T09:47:42;18.42;;;10.60;;
58468;SDS011;44257;44.804;10.220;2024-01-10T09:50:13;19.60;;;11.25;;
58468;SDS011;44257;44.804;10.220;2024-01-10T09:53:14;16.58;;;9.77;;
58468;SDS011;44257;44.804;10.220;2024-01-10T09:58:03;18.05;;;9.95;;
58468;SDS011;44257;44.804;10.220;2024-01-10T10:00:31;16.85;;;9.40;;
58468;SDS011;44257;44.804;10.220;2024-01-10T10:03:00;17.48;;;9.98;;
58468;SDS011;44257;44.804;10.220;2024-01-10T10:05:28;18.65;;;10.80;;
58468;SDS011;44257;44.804;10.220;2024-01-10T10:07:54;17.83;;;11.02;;
58468;SDS011;44257;44.804;10.220;2024-01-10T10:10:21;27.25;;;11.45;;
58468;SDS011;44257;44.804;10.220;2024-01-10T10:12:48;19.20;;;11.15;;
58468;SDS011;44257;44.804;10.220;2024-01-10T10:15:19;21.52;;;11.20;;
58468;SDS011;44257;44.804;10.220;2024-01-10T10:17:48;20.25;;;11.43;;
58468;SDS011;44257;44.804;10.220;2024-01-10T10:20:21;20.67;;;10.65;;
58468;SDS011;44257;44.804;10.220;2024-01-10T10:25:33;20.42;;;10.80;;
58468;SDS011;44257;44.804;10.220;2024-01-10T10:28:00;17.55;;;10.48;;
58468;SDS011;44257;44.804;10.220;2024-01-10T10:30:28;17.38;;;11.02;;
58468;SDS011;44257;44.804;10.220;2024-01-10T10:32:55;18.08;;;11.10;;
58468;SDS011;44257;44.804;10.220;2024-01-10T10:35:21;15.95;;;10.57;;
58468;SDS011;44257;44.804;10.220;2024-01-10T10:37:48;22.27;;;11.90;;
58468;SDS011;44257;44.804;10.220;2024-01-10T10:40:15;22.13;;;14.07;;
58468;SDS011;44257;44.804;10.220;2024-01-10T10:42:45;19.02;;;12.88;;
58468;SDS011;44257;44.804;10.220;2024-01-10T10:45:20;23.95;;;12.00;;
58468;SDS011;44257;44.804;10.220;2024-01-10T10:48:00;20.70;;;11.88;;
58468;SDS011;44257;44.804;10.220;2024-01-10T10:50:33;22.00;;;11.80;;
58468;SDS011;44257;44.804;10.220;2024-01-10T10:53:04;18.30;;;11.40;;
58468;SDS011;44257;44.804;10.220;2024-01-10T10:55:31;16.70;;;11.35;;
58468;SDS011;44257;44.804;10.220;2024-01-10T10:58:00;19.02;;;13.00;;
58468;SDS011;44257;44.804;10.220;2024-01-10T11:00:29;20.20;;;10.35;;
58468;SDS011;44257;44.804;10.220;2024-01-10T11:02:56;18.40;;;11.13;;
58468;SDS011;44257;44.804;10.220;2024-01-10T11:05:25;23.75;;;12.00;;
58468;SDS011;44257;44.804;10.220;2024-01-10T11:07:52;24.67;;;15.57;;
58468;SDS011;44257;44.804;10.220;2024-01-10T11:10:21;20.92;;;12.35;;
58468;SDS011;44257;44.804;10.220;2024-01-10T11:15:47;21.63;;;12.65;;
58468;SDS011;44257;44.804;10.220;2024-01-10T11:18:54;18.92;;;12.15;;
58468;SDS011;44257;44.804;10.220;2024-01-10T11:22:04;16.33;;;10.65;;
58468;SDS011;44257;44.804;10.220;2024-01-10T11:24:33;16.00;;;10.80;;
58468;SDS011;44257;44.804;10.220;2024-01-10T11:27:11;15.20;;;10.48;;
58468;SDS011;44257;44.804;10.220;2024-01-10T11:29:38;15.52;;;10.38;;
58468;SDS011;44257;44.804;10.220;2024-01-10T11:32:15;15.38;;;10.02;;
58468;SDS011;44257;44.804;10.220;2024-01-10T11:34:59;14.55;;;9.05;;
58468;SDS011;44257;44.804;10.220;2024-01-10T11:37:39;14.60;;;9.73;;
58468;SDS011;44257;44.804;10.220;2024-01-10T11:40:08;15.73;;;8.95;;
58468;SDS011;44257;44.804;10.220;2024-01-10T11:47:56;24.48;;;13.88;;
58468;SDS011;44257;44.804;10.220;2024-01-10T11:50:22;15.68;;;9.65;;
58468;SDS011;44257;44.804;10.220;2024-01-10T11:52:52;13.85;;;9.65;;
58468;SDS011;44257;44.804;10.220;2024-01-10T11:58:13;15.75;;;9.10;;
58468;SDS011;44257;44.804;10.220;2024-01-10T12:00:39;17.20;;;9.35;;
58468;SDS011;44257;44.804;10.220;2024-01-10T12:03:07;13.32;;;9.10;;
58468;SDS011;44257;44.804;10.220;2024-01-10T12:05:34;21.55;;;9.82;;
58468;SDS011;44257;44.804;10.220;2024-01-10T12:08:00;15.25;;;9.20;;
58468;SDS011;44257;44.804;10.220;2024-01-10T12:10:44;15.57;;;9.60;;
58468;SDS011;44257;44.804;10.220;2024-01-10T12:13:11;18.58;;;12.32;;
58468;SDS011;44257;44.804;10.220;2024-01-10T12:15:37;15.85;;;10.10;;
58468;SDS011;44257;44.804;10.220;2024-01-10T12:18:03;16.63;;;9.35;;
58468;SDS011;44257;44.804;10.220;2024-01-10T12:20:29;17.45;;;10.10;;
58468;SDS011;44257;44.804;10.220;2024-01-10T12:22:55;14.98;;;10.25;;
58468;SDS011;44257;44.804;10.220;2024-01-10T12:25:21;25.20;;;16.85;;
58468;SDS011;44257;44.804;10.220;2024-01-10T12:27:47;26.13;;;16.65;;
58468;SDS011;44257;44.804;10.220;2024-01-10T12:30:13;21.33;;;15.57;;
58468;SDS011;44257;44.804;10.220;2024-01-10T12:32:40;13.85;;;10.00;;
58468;SDS011;44257;44.804;10.220;2024-01-10T12:35:07;13.40;;;9.45;;
58468;SDS011;44257;44.804;10.220;2024-01-10T12:37:33;15.52;;;9.63;;
58468;SDS011;44257;44.804;10.220;2024-01-10T12:39:59;15.02;;;9.90;;
58468;SDS011;44257;44.804;10.220;2024-01-10T12:42:25;15.90;;;10.50;;
58468;SDS011;44257;44.804;10.220;2024-01-10T12:44:51;17.95;;;10.07;;
58468;SDS011;44257;44.804;10.220;2024-01-10T12:47:22;15.98;;;10.40;;
58468;SDS011;44257;44.804;10.220;2024-01-10T12:49:50;17.45;;;10.45;;
58468;SDS011;44257;44.804;10.220;2024-01-10T12:52:15;15.55;;;9.90;;
58468;SDS011;44257;44.804;10.220;2024-01-10T12:54:41;15.30;;;10.15;;
58468;SDS011;44257;44.804;10.220;2024-01-10T12:57:08;16.27;;;9.30;;
58468;SDS011;44257;44.804;10.220;2024-01-10T12:59:33;16.13;;;9.30;;
58468;SDS011;44257;44.804;10.220;2024-01-10T13:02:00;17.67;;;10.35;;
58468;SDS011;44257;44.804;10.220;2024-01-10T13:04:26;19.73;;;9.63;;
58468;SDS011;44257;44.804;10.220;2024-01-10T13:06:52;15.05;;;9.75;;
58468;SDS011;44257;44.804;10.220;2024-01-10T13:09:18;19.90;;;9.90;;
58468;SDS011;44257;44.804;10.220;2024-01-10T13:11:44;15.57;;;8.88;;
58468;SDS011;44257;44.804;10.220;2024-01-10T13:14:10;14.68;;;9.85;;
58468;SDS011;44257;44.804;10.220;2024-01-10T13:16:37;13.68;;;8.93;;
58468;SDS011;44257;44.804;10.220;2024-01-10T13:19:03;16.48;;;10.43;;
58468;SDS011;44257;44.804;10.220;2024-01-10T13:21:29;19.50;;;10.18;;
58468;SDS011;44257;44.804;10.220;2024-01-10T13:23:54;17.40;;;10.02;;
58468;SDS011;44257;44.804;10.220;2024-01-10T13:26:20;15.40;;;9.55;;
58468;SDS011;44257;44.804;10.220;2024-01-10T13:28:46;15.73;;;10.10;;
58468;SDS011;44257;44.804;10.220;2024-01-10T13:31:12;15.40;;;10.45;;
58468;SDS011;44257;44.804;10.220;2024-01-10T13:33:38;14.32;;;9.20;;
58468;SDS011;44257;44.804;10.220;2024-01-10T13:36:04;16.92;;;10.05;;
58468;SDS011;44257;44.804;10.220;2024-01-10T13:38:30;14.57;;;9.55;;
58468;SDS011;44257;44.804;10.220;2024-01-10T13:40:56;14.50;;;10.15;;
58468;SDS011;44257;44.804;10.220;2024-01-10T13:43:23;13.95;;;10.23;;
58468;SDS011;44257;44.804;10.220;2024-01-10T13:45:48;15.70;;;10.50;;
58468;SDS011;44257;44.804;10.220;2024-01-10T13:48:14;14.98;;;9.98;;
58468;SDS011;44257;44.804;10.220;2024-01-10T13:50:41;17.15;;;10.25;;
58468;SDS011;44257;44.804;10.220;2024-01-10T13:53:07;19.13;;;12.02;;
58468;SDS011;44257;44.804;10.220;2024-01-10T13:55:33;13.73;;;9.45;;
58468;SDS011;44257;44.804;10.220;2024-01-10T13:58:00;17.10;;;9.13;;
58468;SDS011;44257;44.804;10.220;2024-01-10T14:00:26;14.45;;;9.85;;
58468;SDS011;44257;44.804;10.220;2024-01-10T14:02:52;15.75;;;10.20;;
58468;SDS011;44257;44.804;10.220;2024-01-10T14:05:24;13.87;;;9.60;;
58468;SDS011;44257;44.804;10.220;2024-01-10T14:07:51;16.13;;;9.95;;
58468;SDS011;44257;44.804;10.220;2024-01-10T14:10:16;15.63;;;10.30;;
58468;SDS011;44257;44.804;10.220;2024-01-10T14:12:43;15.82;;;9.30;;
58468;SDS011;44257;44.804;10.220;2024-01-10T14:15:09;14.05;;;8.52;;
58468;SDS011;44257;44.804;10.220;2024-01-10T14:17:35;15.38;;;9.32;;
58468;SDS011;44257;44.804;10.220;2024-01-10T14:20:01;15.05;;;9.75;;
58468;SDS011;44257;44.804;10.220;2024-01-10T14:22:27;15.65;;;9.95;;
58468;SDS011;44257;44.804;10.220;2024-01-10T14:24:53;14.75;;;10.18;;
58468;SDS011;44257;44.804;10.220;2024-01-10T14:27:19;15.93;;;10.43;;
58468;SDS011;44257;44.804;10.220;2024-01-10T14:29:45;14.73;;;9.65;;